Marshall, Minnesota
Current Conditions -  °F | °C
As of 12:55 PM on Thursday 23 Oct 2014 (Local Time) from KMML Reporting Station
Clear Clear  
Wind Chill: 68°   Ceiling: Unl
Heat Index: 68°   Visibility: 10mi
Dew Point: 39°   Wind: 6mph
Humidity: 35%   Direction: 280°W
Pressure: 29.99"   Gusts: NA
Location:  44.45°N, 95.79°W
Report Text: KMML 231755Z AUTO 28005KT 10SM CLR 20/04 A2999 RMK AO1 10200 20090 54000
Loading
Personal Weather Stations






























Interactive Weather Map New forecast layout! Learn more

10-Day Weather Forecast

Advertisements
Track Severe Weather on mobile